Other Surface Observations
Issued by NWS Missoula, MT

Home | Current Version | Previous Version | Text Only | Print | Product List | Glossary On
Versions: 1 2 3 4 5 6 7 8 9 10 11 12 13 14 15 16 17 18 19 20 21 22 23 24 25 26 27 28 29 30 31 32 33 34 35 36 37 38 39 40 41 42 43 44 45 46 47 48 49 50
000
SXUS55 KMSO 260303
OSOMSO
MONTANA AWOS SUMMARY
NATIONAL WEATHER SERVICE MISSOULA MT
903 PM MDT MON MAY 25 2015

Montana AWOS Reports

TWIN BRIDGES|K7S1 260255Z AUTO 36014G19KT 40SM 16/03 A2988 RMK AO1 T01560033
ROUNDUP     |KRPX 260255Z AUTO 00000KT 40SM 15/07 A2982 RMK AO1 T01500072
MALTA       |KM75 260255Z AUTO 12007KT 40SM 19/09 A2981 RMK AO1 T01940094
SCOBEY      |K9S2 260255Z AUTO 00000KT 40SM 16/06 A2989 RMK AO1 T01610056
EKALAKA     |K97M 260255Z AUTO 13008KT 40SM 12/09 A2992 RMK AO1 T01170089
LAUREL      |K6S8 260255Z AUTO 00000KT 40SM 16/06 A2989 RMK AO1 T01560056




USA.gov is the U.S. government's official web portal to all federal, state and local government web resources and services.